createdAt,value
2022-11-20T00:01:40.086Z,1.90
2022-11-20T00:04:08.374Z,1.60
2022-11-20T00:06:36.557Z,2.17
2022-11-20T00:09:06.412Z,1.90
2022-11-20T00:11:34.810Z,1.80
2022-11-20T00:14:04.204Z,2.13
2022-11-20T00:16:57.994Z,1.70
2022-11-20T00:19:34.119Z,2.00
2022-11-20T00:22:02.338Z,2.40
2022-11-20T00:24:31.974Z,1.83
2022-11-20T00:27:00.156Z,2.10
2022-11-20T00:29:28.367Z,2.00
2022-11-20T00:31:56.671Z,2.10
2022-11-20T00:34:24.868Z,2.50
2022-11-20T00:36:53.101Z,2.23
2022-11-20T00:39:21.627Z,2.57
2022-11-20T00:41:51.472Z,2.00
2022-11-20T00:44:19.690Z,2.53
2022-11-20T00:46:47.953Z,2.10
2022-11-20T00:49:16.213Z,2.60
2022-11-20T00:51:44.409Z,2.60
2022-11-20T00:54:12.738Z,2.60
2022-11-20T00:56:41.153Z,2.20
2022-11-20T00:59:12.362Z,2.30
2022-11-20T01:01:40.945Z,2.00
2022-11-20T01:04:09.161Z,2.43
2022-11-20T01:06:39.951Z,2.40
2022-11-20T01:09:10.491Z,3.17
2022-11-20T01:12:06.968Z,2.20
2022-11-20T01:14:37.785Z,2.23
2022-11-20T01:17:05.967Z,2.27
2022-11-20T01:19:34.310Z,2.07
2022-11-20T01:22:02.531Z,2.03
2022-11-20T01:24:30.793Z,1.97
2022-11-20T01:26:59.071Z,2.07
2022-11-20T01:29:27.651Z,2.30
2022-11-20T01:31:57.215Z,2.33
2022-11-20T01:34:50.991Z,2.67
2022-11-20T01:37:34.537Z,2.63
2022-11-20T01:40:02.760Z,2.90
2022-11-20T01:42:48.707Z,2.77
2022-11-20T01:45:57.929Z,2.87
2022-11-20T01:48:32.004Z,2.50
2022-11-20T01:51:01.284Z,2.43
2022-11-20T01:53:34.331Z,2.00
2022-11-20T01:56:07.884Z,2.20
2022-11-20T01:58:39.512Z,2.17
2022-11-20T02:01:07.888Z,1.97
2022-11-20T02:03:38.381Z,1.90
2022-11-20T02:06:12.607Z,1.90
2022-11-20T02:08:41.421Z,2.00
2022-11-20T02:11:09.970Z,1.90
2022-11-20T02:13:46.490Z,2.00
2022-11-20T02:16:17.969Z,1.70
2022-11-20T02:18:48.825Z,1.70
2022-11-20T02:21:34.455Z,1.70
2022-11-20T02:24:06.523Z,1.67
2022-11-20T02:26:40.343Z,1.80
2022-11-20T02:29:08.762Z,1.77
2022-11-20T02:31:40.630Z,1.80
2022-11-20T02:34:08.930Z,1.50
2022-11-20T02:36:38.725Z,1.50
2022-11-20T02:39:08.645Z,1.63
2022-11-20T02:41:38.874Z,1.50
2022-11-20T02:44:10.344Z,1.70
2022-11-20T02:46:38.553Z,1.70
2022-11-20T02:49:07.584Z,1.60
2022-11-20T02:52:00.662Z,1.50
2022-11-20T02:54:30.269Z,1.67
2022-11-20T02:56:59.580Z,1.83
2022-11-20T02:59:52.779Z,1.67
2022-11-20T03:02:46.056Z,1.60
2022-11-20T03:05:14.352Z,1.60
2022-11-20T03:07:42.603Z,1.60
2022-11-20T03:10:12.680Z,1.60
2022-11-20T03:12:40.904Z,1.80
2022-11-20T03:15:10.159Z,1.60
2022-11-20T03:17:38.403Z,1.87
2022-11-20T03:20:08.066Z,1.57
2022-11-20T03:22:36.272Z,1.97
2022-11-20T03:25:05.055Z,1.80
2022-11-20T03:27:36.736Z,1.80
2022-11-20T03:30:06.519Z,1.50
2022-11-20T03:32:34.820Z,2.20
2022-11-20T03:35:03.086Z,1.70
2022-11-20T03:37:31.295Z,1.93
2022-11-20T03:39:59.540Z,1.83
2022-11-20T03:42:45.316Z,1.80
2022-11-20T03:45:15.367Z,1.60
2022-11-20T03:47:43.878Z,1.90
2022-11-20T03:50:14.549Z,1.77
2022-11-20T03:52:42.977Z,1.70
2022-11-20T03:55:11.893Z,1.40
2022-11-20T03:57:40.137Z,1.40
2022-11-20T04:00:09.448Z,1.70
2022-11-20T04:02:39.028Z,1.77
2022-11-20T04:05:08.106Z,1.53
2022-11-20T04:07:37.341Z,1.70
2022-11-20T04:10:06.202Z,1.60
2022-11-20T04:12:35.546Z,1.90
2022-11-20T04:15:03.864Z,2.30
2022-11-20T04:17:32.106Z,2.00
2022-11-20T04:20:01.697Z,1.87
2022-11-20T04:22:29.954Z,2.00
2022-11-20T04:24:58.149Z,2.30
2022-11-20T04:27:26.370Z,2.30
2022-11-20T04:29:54.620Z,1.93
2022-11-20T04:32:22.854Z,1.90
2022-11-20T04:34:51.071Z,1.60
2022-11-20T04:37:20.727Z,1.63
2022-11-20T04:39:48.945Z,1.80
2022-11-20T04:42:32.081Z,1.90
2022-11-20T04:45:00.792Z,1.40
2022-11-20T04:47:29.180Z,1.53
2022-11-20T04:49:57.538Z,1.40
2022-11-20T04:52:27.266Z,1.70
2022-11-20T04:55:21.046Z,1.60
2022-11-20T04:57:52.860Z,1.77
2022-11-20T05:00:21.296Z,1.90
2022-11-20T05:02:49.656Z,1.70
2022-11-20T05:05:17.963Z,1.70
2022-11-20T05:07:47.641Z,1.83
2022-11-20T05:10:16.036Z,2.20
2022-11-20T05:13:03.982Z,1.90
2022-11-20T05:15:35.396Z,2.00
2022-11-20T05:18:03.694Z,2.00
2022-11-20T05:20:31.891Z,2.03
2022-11-20T05:23:01.524Z,1.97
2022-11-20T05:25:29.961Z,1.93
2022-11-20T05:28:01.456Z,1.80
2022-11-20T05:30:29.679Z,1.70
2022-11-20T05:32:57.902Z,1.47
2022-11-20T05:35:26.089Z,1.77
2022-11-20T05:37:54.298Z,1.90
2022-11-20T05:40:23.883Z,2.20
2022-11-20T05:42:52.106Z,1.90
2022-11-20T05:45:20.423Z,2.30
2022-11-20T05:47:48.672Z,2.17
2022-11-20T05:50:17.148Z,2.13
2022-11-20T05:52:45.538Z,1.77
2022-11-20T05:55:13.740Z,1.93
2022-11-20T05:57:43.679Z,1.97
2022-11-20T06:00:13.208Z,2.10
2022-11-20T06:02:41.487Z,1.87
2022-11-20T06:05:10.492Z,2.10
2022-11-20T06:07:38.762Z,2.23
2022-11-20T06:10:07.615Z,1.93
2022-11-20T06:12:35.839Z,2.10
2022-11-20T06:15:05.919Z,2.30
2022-11-20T06:17:34.199Z,2.60
2022-11-20T06:20:02.389Z,2.50
2022-11-20T06:22:30.628Z,2.10
2022-11-20T06:24:58.850Z,2.10
2022-11-20T06:27:27.192Z,2.00
2022-11-20T06:29:58.560Z,2.07
2022-11-20T06:32:28.164Z,1.70
2022-11-20T06:34:56.368Z,1.57
2022-11-20T06:37:26.682Z,2.07
2022-11-20T06:39:54.920Z,1.83
2022-11-20T06:42:23.126Z,1.60
2022-11-20T06:44:53.523Z,1.70
2022-11-20T06:47:22.436Z,1.87
2022-11-20T06:49:52.040Z,1.80
2022-11-20T06:52:20.323Z,2.00
2022-11-20T06:54:48.535Z,1.90
2022-11-20T06:57:16.789Z,1.90
2022-11-20T07:00:11.095Z,2.10
2022-11-20T07:02:39.396Z,2.00
2022-11-20T07:05:09.331Z,1.80
2022-11-20T07:07:37.710Z,1.87
2022-11-20T07:10:06.913Z,2.07
2022-11-20T07:12:35.126Z,2.50
2022-11-20T07:15:03.451Z,2.37
2022-11-20T07:17:31.730Z,2.73
2022-11-20T07:19:59.932Z,2.60
2022-11-20T07:22:29.677Z,2.97
2022-11-20T07:24:57.916Z,2.50
2022-11-20T07:27:26.163Z,2.67
2022-11-20T07:29:54.355Z,2.70
2022-11-20T07:32:26.878Z,3.20
2022-11-20T07:34:55.163Z,2.63
2022-11-20T07:37:23.544Z,2.97
2022-11-20T07:39:53.136Z,2.20
2022-11-20T07:42:21.341Z,2.60
2022-11-20T07:44:49.580Z,2.70
2022-11-20T07:47:17.830Z,2.80
2022-11-20T07:49:46.037Z,2.90
2022-11-20T07:52:14.312Z,3.83
2022-11-20T07:54:42.573Z,2.80
2022-11-20T07:57:12.184Z,2.97
2022-11-20T07:59:40.985Z,3.00
2022-11-20T08:02:12.642Z,2.90
2022-11-20T08:04:40.917Z,2.83
2022-11-20T08:07:09.187Z,2.93
2022-11-20T08:09:37.432Z,2.40
2022-11-20T08:12:23.134Z,2.90
2022-11-20T08:14:52.780Z,3.40
2022-11-20T08:17:21.003Z,3.33
2022-11-20T08:19:49.168Z,3.10
2022-11-20T08:22:18.663Z,2.77
2022-11-20T08:24:46.895Z,2.60
2022-11-20T08:27:15.164Z,2.87
2022-11-20T08:29:43.370Z,2.90
2022-11-20T08:32:13.015Z,2.60
2022-11-20T08:34:46.112Z,2.27
2022-11-20T08:37:14.503Z,2.30
2022-11-20T08:40:33.660Z,2.17
2022-11-20T08:43:26.923Z,2.00
2022-11-20T08:45:55.172Z,2.53
2022-11-20T08:48:24.820Z,1.90
2022-11-20T08:50:53.091Z,2.03
2022-11-20T08:53:21.286Z,1.77
2022-11-20T08:55:49.506Z,2.77
2022-11-20T08:58:17.756Z,2.10
2022-11-20T09:00:46.082Z,2.30
2022-11-20T09:03:14.622Z,1.97
2022-11-20T09:05:44.940Z,1.90
2022-11-20T09:08:13.229Z,1.57
2022-11-20T09:10:41.695Z,1.80
2022-11-20T09:13:10.248Z,1.60
2022-11-20T09:15:38.473Z,1.67
2022-11-20T09:18:06.840Z,1.47
2022-11-20T09:20:35.052Z,1.53
2022-11-20T09:23:04.751Z,1.50
2022-11-20T09:25:32.973Z,1.83
2022-11-20T09:28:01.631Z,2.20
2022-11-20T09:30:30.284Z,1.80
2022-11-20T09:32:58.541Z,1.93
2022-11-20T09:35:26.846Z,1.80
2022-11-20T09:37:55.089Z,2.07
2022-11-20T09:40:26.413Z,2.00
2022-11-20T09:42:59.746Z,1.87
2022-11-20T09:45:41.212Z,1.90
2022-11-20T09:48:35.018Z,1.80
2022-11-20T09:51:08.203Z,2.57
2022-11-20T09:53:44.605Z,2.20
2022-11-20T09:56:18.355Z,2.00
2022-11-20T09:58:53.630Z,1.77
2022-11-20T10:01:23.688Z,1.80
2022-11-20T10:03:57.891Z,2.70
2022-11-20T10:06:31.705Z,2.00
2022-11-20T10:09:18.873Z,1.63
2022-11-20T10:11:59.088Z,2.20
2022-11-20T10:14:38.426Z,1.87
2022-11-20T10:17:18.930Z,2.40
2022-11-20T10:19:58.745Z,2.43
2022-11-20T10:22:47.555Z,2.10
2022-11-20T10:25:17.357Z,2.20
2022-11-20T10:28:06.152Z,2.60
2022-11-20T10:30:40.805Z,3.10
2022-11-20T10:33:17.523Z,3.40
2022-11-20T10:35:50.975Z,3.13
2022-11-20T10:38:23.806Z,3.20
2022-11-20T10:41:15.376Z,2.80
2022-11-20T10:43:46.470Z,2.93
2022-11-20T10:46:19.360Z,2.70
2022-11-20T10:48:48.378Z,2.30
2022-11-20T10:51:25.390Z,1.70
2022-11-20T10:54:00.879Z,0.97
2022-11-20T10:56:36.862Z,1.20
2022-11-20T10:59:37.594Z,0.90
2022-11-20T11:02:17.807Z,0.90
2022-11-20T11:04:48.865Z,0.93
2022-11-20T11:07:21.881Z,1.00
2022-11-20T11:09:53.004Z,1.20
2022-11-20T11:12:22.960Z,1.07
2022-11-20T11:14:55.447Z,0.90
2022-11-20T11:17:29.567Z,1.00
2022-11-20T11:20:07.703Z,1.00
2022-11-20T11:22:45.872Z,0.80
2022-11-20T11:25:26.117Z,1.07
2022-11-20T11:28:25.796Z,0.90
2022-11-20T11:30:55.812Z,1.03
2022-11-20T11:33:26.104Z,1.10
2022-11-20T11:35:58.031Z,1.37
2022-11-20T11:38:32.852Z,1.70
2022-11-20T11:41:01.614Z,2.10
2022-11-20T11:43:49.816Z,1.93
2022-11-20T11:46:32.978Z,1.63
2022-11-20T11:49:02.458Z,1.50
2022-11-20T11:51:37.000Z,1.63
2022-11-20T11:54:22.387Z,1.33
2022-11-20T11:56:51.587Z,1.00
2022-11-20T11:59:28.236Z,1.30
2022-11-20T12:02:02.710Z,1.90
2022-11-20T12:04:46.625Z,1.60
2022-11-20T12:07:45.513Z,1.60
2022-11-20T12:10:19.324Z,1.57
2022-11-20T12:12:50.269Z,1.87
2022-11-20T12:15:28.694Z,2.00
2022-11-20T12:17:58.539Z,1.47
2022-11-20T12:20:31.241Z,1.30
2022-11-20T12:23:10.000Z,2.87
2022-11-20T12:25:40.844Z,3.70
2022-11-20T12:28:39.899Z,3.60
2022-11-20T12:31:26.303Z,2.37
2022-11-20T12:34:15.147Z,1.47
2022-11-20T12:37:33.796Z,1.50
2022-11-20T12:40:12.852Z,2.03
2022-11-20T12:43:08.783Z,3.80
2022-11-20T12:45:58.976Z,2.00
2022-11-20T12:48:46.610Z,3.23
2022-11-20T12:51:31.127Z,2.67
2022-11-20T12:54:20.611Z,5.50
2022-11-20T12:57:03.609Z,1.50
2022-11-20T12:59:46.409Z,1.30
2022-11-20T13:02:26.452Z,1.33
2022-11-20T13:05:19.995Z,1.43
2022-11-20T13:07:53.348Z,1.30
2022-11-20T13:13:17.536Z,1.70
2022-11-20T13:16:04.446Z,1.70
2022-11-20T13:18:39.931Z,1.67
2022-11-20T13:21:20.338Z,1.80
2022-11-20T13:23:50.229Z,2.63
2022-11-20T13:26:21.846Z,1.60
2022-11-20T13:29:10.010Z,1.40
2022-11-20T13:31:44.918Z,1.40
2022-11-20T13:34:16.518Z,1.37
2022-11-20T13:36:52.735Z,1.70
2022-11-20T13:39:29.689Z,1.67
2022-11-20T13:42:00.013Z,1.43
2022-11-20T13:44:35.395Z,1.50
2022-11-20T13:47:03.845Z,1.70
2022-11-20T13:49:35.486Z,1.90
2022-11-20T13:52:39.313Z,1.57
2022-11-20T13:55:18.858Z,1.80
2022-11-20T13:58:06.142Z,1.80
2022-11-20T14:00:34.486Z,1.50
2022-11-20T14:03:13.234Z,1.40
2022-11-20T14:05:51.003Z,1.30
2022-11-20T14:08:28.751Z,1.40
2022-11-20T14:11:25.319Z,1.50
2022-11-20T14:13:59.154Z,1.30
2022-11-20T14:16:29.447Z,1.70
2022-11-20T14:18:58.749Z,1.40
2022-11-20T14:21:29.482Z,1.30
2022-11-20T14:24:06.404Z,1.87
2022-11-20T14:26:36.295Z,1.17
2022-11-20T14:29:04.578Z,1.20
2022-11-20T14:31:33.061Z,1.47
2022-11-20T14:34:01.368Z,1.60
2022-11-20T14:36:30.119Z,1.60
2022-11-20T14:38:58.438Z,1.40
2022-11-20T14:41:26.748Z,1.10
2022-11-20T14:43:59.020Z,1.30
2022-11-20T14:46:28.227Z,1.50
2022-11-20T14:48:58.115Z,1.40
2022-11-20T14:51:31.871Z,1.20
2022-11-20T14:54:13.564Z,1.30
2022-11-20T14:56:41.943Z,1.20
2022-11-20T14:59:11.857Z,1.30
2022-11-20T15:01:40.135Z,1.40
2022-11-20T15:04:11.244Z,1.30
2022-11-20T15:06:40.280Z,1.53
2022-11-20T15:09:17.083Z,1.90
2022-11-20T15:11:56.287Z,1.53
2022-11-20T15:14:50.818Z,1.40
2022-11-20T15:17:19.143Z,1.30
2022-11-20T15:19:47.407Z,1.53
2022-11-20T15:22:17.183Z,3.67
2022-11-20T15:24:45.384Z,3.30
2022-11-20T15:27:13.763Z,2.23
2022-11-20T15:29:42.856Z,2.53
2022-11-20T15:32:13.729Z,3.10
2022-11-20T15:34:42.241Z,2.13
2022-11-20T15:37:10.454Z,2.30
2022-11-20T15:39:38.692Z,1.53
2022-11-20T15:42:07.096Z,2.87
2022-11-20T15:44:35.398Z,2.90
2022-11-20T15:47:03.654Z,3.27
2022-11-20T15:49:33.312Z,3.30
2022-11-20T15:52:01.550Z,3.63
2022-11-20T15:54:29.818Z,3.60
2022-11-20T15:56:58.094Z,6.43
2022-11-20T15:59:26.327Z,3.97
2022-11-20T16:01:56.099Z,3.93
2022-11-20T16:04:24.678Z,4.13
2022-11-20T16:06:54.654Z,3.70
2022-11-20T16:09:22.885Z,2.63
2022-11-20T16:11:51.069Z,19.23
2022-11-20T16:14:36.832Z,13.37
2022-11-20T16:17:37.256Z,9.53
2022-11-20T16:20:06.286Z,6.43
2022-11-20T16:22:35.900Z,4.53
2022-11-20T16:25:05.219Z,4.20
2022-11-20T16:27:33.668Z,4.17
2022-11-20T16:30:02.030Z,3.00
2022-11-20T16:32:30.273Z,2.53
2022-11-20T16:34:58.487Z,2.40
2022-11-20T16:37:26.735Z,5.00
2022-11-20T16:39:57.333Z,3.10
2022-11-20T16:42:25.709Z,1.63
2022-11-20T16:44:54.194Z,2.00
2022-11-20T16:47:22.417Z,1.53
2022-11-20T16:49:50.707Z,1.50
2022-11-20T16:52:18.917Z,1.50
2022-11-20T16:54:47.092Z,1.67
2022-11-20T16:57:16.774Z,1.43
2022-11-20T16:59:45.016Z,2.80
2022-11-20T17:02:13.330Z,2.33
2022-11-20T17:04:41.607Z,1.67
2022-11-20T17:07:10.052Z,1.60
2022-11-20T17:09:38.322Z,1.80
2022-11-20T17:12:07.534Z,3.20
2022-11-20T17:14:38.482Z,3.47
2022-11-20T17:17:06.739Z,2.23
2022-11-20T17:19:34.940Z,1.50
2022-11-20T17:22:03.276Z,1.80
2022-11-20T17:24:32.140Z,1.90
2022-11-20T17:27:10.613Z,2.37
2022-11-20T17:29:42.184Z,2.07
2022-11-20T17:32:10.646Z,2.57
2022-11-20T17:34:38.829Z,2.80
2022-11-20T17:37:07.443Z,3.20
2022-11-20T17:39:36.059Z,2.90
2022-11-20T17:45:16.282Z,3.83
2022-11-20T17:47:46.499Z,5.30
2022-11-20T17:50:14.728Z,5.03
2022-11-20T17:52:43.040Z,4.83
2022-11-20T17:55:11.432Z,6.47
2022-11-20T17:57:59.427Z,8.47
2022-11-20T18:00:30.635Z,8.67
2022-11-20T18:02:59.127Z,8.60
2022-11-20T18:05:28.090Z,10.03
2022-11-20T18:07:56.392Z,12.33
2022-11-20T18:10:24.812Z,12.97
2022-11-20T18:12:53.863Z,14.17
2022-11-20T18:15:22.076Z,13.77
2022-11-20T18:17:51.649Z,17.33
2022-11-20T18:20:30.241Z,20.10
2022-11-20T18:23:00.310Z,18.23
2022-11-20T18:25:28.497Z,19.97
2022-11-20T18:27:56.740Z,18.67
2022-11-20T18:30:25.112Z,19.00
2022-11-20T18:32:55.503Z,14.20
2022-11-20T18:35:23.701Z,13.10
2022-11-20T18:37:51.921Z,12.47
2022-11-20T18:40:20.096Z,11.17
2022-11-20T18:43:05.900Z,9.73
2022-11-20T18:45:34.530Z,10.53
2022-11-20T18:48:04.790Z,9.50
2022-11-20T18:50:33.236Z,8.90
2022-11-20T18:53:01.527Z,7.13
2022-11-20T18:55:29.810Z,7.17
2022-11-20T18:57:58.017Z,6.80
2022-11-20T19:00:35.372Z,6.63
2022-11-20T19:03:05.185Z,14.37
2022-11-20T19:05:37.010Z,13.40
2022-11-20T19:08:05.665Z,9.67
2022-11-20T19:10:34.695Z,8.27
2022-11-20T19:13:02.926Z,4.60
2022-11-20T19:15:31.154Z,7.23
2022-11-20T19:18:01.294Z,3.40
2022-11-20T19:20:31.852Z,4.07
2022-11-20T19:23:01.586Z,6.00
2022-11-20T19:25:36.679Z,7.83
2022-11-20T19:28:06.516Z,9.07
2022-11-20T19:30:34.770Z,9.97
2022-11-20T19:33:03.111Z,9.23
2022-11-20T19:35:32.738Z,6.63
2022-11-20T19:38:05.328Z,5.53
2022-11-20T19:40:33.926Z,9.67
2022-11-20T19:43:02.108Z,3.20
2022-11-20T19:45:30.302Z,3.00
2022-11-20T19:48:07.971Z,3.23
2022-11-20T19:50:38.071Z,3.10
2022-11-20T19:53:07.489Z,4.57
2022-11-20T19:55:35.726Z,3.93
2022-11-20T19:58:04.977Z,5.77
2022-11-20T20:00:33.429Z,7.63
2022-11-20T20:03:02.591Z,4.03
2022-11-20T20:05:30.817Z,3.77
2022-11-20T20:08:00.441Z,3.80
2022-11-20T20:11:19.361Z,5.57
2022-11-20T20:13:48.556Z,8.07
2022-11-20T20:16:18.865Z,8.07
2022-11-20T20:18:47.372Z,9.00
2022-11-20T20:21:18.596Z,10.73
2022-11-20T20:23:52.360Z,9.70
2022-11-20T20:26:21.394Z,10.37
2022-11-20T20:28:49.649Z,10.63
2022-11-20T20:31:19.483Z,11.77
2022-11-20T20:34:12.698Z,10.90
2022-11-20T20:36:41.043Z,14.27
2022-11-20T20:39:12.346Z,14.73
2022-11-20T20:41:40.586Z,13.63
2022-11-20T20:44:26.334Z,16.40
2022-11-20T20:46:54.572Z,14.70
2022-11-20T20:49:23.081Z,15.43
2022-11-20T20:51:51.615Z,15.40
2022-11-20T20:54:21.372Z,14.03
2022-11-20T20:56:51.768Z,15.00
2022-11-20T20:59:20.042Z,14.73
2022-11-20T21:01:48.350Z,14.50
2022-11-20T21:04:16.601Z,14.33
2022-11-20T21:06:44.762Z,14.20
2022-11-20T21:09:13.058Z,14.50
2022-11-20T21:11:42.641Z,15.10
2022-11-20T21:14:10.897Z,14.20
2022-11-20T21:16:43.880Z,12.57
2022-11-20T21:19:12.294Z,12.30
2022-11-20T21:21:57.940Z,10.87
2022-11-20T21:24:26.576Z,10.63
2022-11-20T21:26:56.813Z,10.23
2022-11-20T21:29:26.562Z,10.93
2022-11-20T21:31:55.562Z,10.67
2022-11-20T21:34:24.589Z,10.17
2022-11-20T21:36:53.175Z,10.50
2022-11-20T21:39:22.913Z,11.23
2022-11-20T21:41:51.117Z,11.40
2022-11-20T21:44:35.849Z,9.80
2022-11-20T21:47:04.088Z,10.17
2022-11-20T21:49:32.344Z,9.77
2022-11-20T21:52:00.570Z,8.87
2022-11-20T21:54:28.757Z,8.33
2022-11-20T21:56:56.967Z,8.70
2022-11-20T21:59:26.926Z,7.87
2022-11-20T22:01:55.278Z,7.40
2022-11-20T22:04:24.648Z,7.70
2022-11-20T22:06:53.140Z,7.43
2022-11-20T22:09:21.338Z,7.73
2022-11-20T22:11:49.569Z,8.50
2022-11-20T22:14:23.470Z,10.10
2022-11-20T22:16:54.649Z,9.73
2022-11-20T22:19:24.284Z,8.63
2022-11-20T22:21:52.626Z,7.53
2022-11-20T22:24:22.191Z,6.13
2022-11-20T22:26:51.075Z,5.30
2022-11-20T22:29:21.898Z,6.60
2022-11-20T22:31:54.034Z,6.10
2022-11-20T22:34:22.633Z,5.90
2022-11-20T22:36:51.238Z,5.67
2022-11-20T22:39:21.867Z,6.63
2022-11-20T22:41:50.036Z,6.60
2022-11-20T22:44:18.428Z,7.03
2022-11-20T22:46:46.743Z,7.63
2022-11-20T22:49:16.301Z,6.40
2022-11-20T22:51:44.555Z,6.67
2022-11-20T22:54:47.426Z,6.07
2022-11-20T22:57:15.672Z,5.70
2022-11-20T22:59:43.848Z,5.30
2022-11-20T23:02:12.099Z,5.93
2022-11-20T23:04:41.689Z,6.80
2022-11-20T23:07:09.931Z,6.87
2022-11-20T23:09:38.160Z,6.80
2022-11-20T23:12:07.078Z,7.57
2022-11-20T23:14:35.294Z,6.60
2022-11-20T23:17:03.493Z,8.67
2022-11-20T23:19:31.711Z,8.17
2022-11-20T23:22:01.416Z,9.37
2022-11-20T23:24:29.806Z,11.07
2022-11-20T23:26:58.078Z,9.63
2022-11-20T23:29:26.338Z,9.43
2022-11-20T23:31:54.567Z,8.30
2022-11-20T23:34:22.787Z,7.57
2022-11-20T23:36:51.034Z,8.17
2022-11-20T23:39:20.599Z,9.00
2022-11-20T23:41:48.789Z,9.40
2022-11-20T23:44:17.056Z,10.10
2022-11-20T23:46:45.308Z,9.50
2022-11-20T23:49:13.546Z,8.53
2022-11-20T23:51:41.782Z,9.47
2022-11-20T23:54:10.077Z,9.00
2022-11-20T23:56:39.682Z,8.50
2022-11-20T23:59:08.339Z,7.97
